Portada
METAR-TAF:

METAR-TAF

Aeropuertos :

Aeropuerto Internacional Juan Vicente Gómez

San Antonio del Táchira, Venezuela

latitud: 07-51N, longitud: 072-27W, altitud: 377 m

METAR: falta

Hora: 11:51 (15:51 UTC)

Pronóstico

El informe se hizo hace 5 horas y 51 minutos, a las 10:00 UTC
Pronóstico válido del 23 a las 12 UTC al 24 a las 12 UTC
Viento 5 kt del este
Visibilidad 10 km o más
Cielo nuboso a una altura de 1600 ft
Evolucionando progresivamente
del 23 a las 12 UTC al 23 a las 16 UTC
Viento 4 kt del sureste
Visibilidad: 9000 m
Cielo cubierto a una altura de 2000 ft
llovizna ligera

TAF: SVSA 231000Z 2312/2412 09005KT 9999 BKN016 TX33/19Z TN26/10Z BECMG 2312/2316 14004KT 9000 -DZ OVC020

Observaciones y pronósticos meteorológicos de más de 4000 aeropuertos (mensajes METAR y TAF).

Los puntos amarillos y rojos representan las estaciones disponibles.

Ponga el ratón en el punto deseado para ver el nombre de la estación.

Haga clic para ver las observaciones y los pronósticos meteorológicos.

Para cambiar el mapa : haga clic en los botones verdes con una cruz de color negro para hacer un zoom, en el botón verde con un guión para alejar o en las flechas verdes para mapas adyacentes.


METAR-TAF: